Time;durP1;ratioP1;P1;durP2;ratioP2;P2;SDS_P1;SDS_P2;PMS_P1;PMS_P2;Temp;Humidity;BMP_temperature;BMP_pressure;BME280_temperature;BME280_humidity;BME280_pressure;Samples;Min_cycle;Max_cycle;Signal;HPM_P1;HPM_P2
2021/12/16 00:02:58;;;;;;;;;;;3.80;99.90;;;;;;4960501;28;20072;-83
2021/12/16 00:05:42;;;;;;;;;;;3.80;99.90;;;;;;4957488;28;20464;-81
2021/12/16 00:08:17;;;;;;;;;;;3.80;99.90;;;;;;4970710;28;19921;-81
2021/12/16 00:10:53;;;;;;;;;;;3.80;99.90;;;;;;4956390;28;20002;-80
2021/12/16 00:30:04;;;;;;;;;;;3.80;99.90;;;;;;4942195;28;20073;-75
2021/12/16 00:32:45;;;;;;;;;;;3.80;99.90;;;;;;4948196;29;19933;-75
2021/12/16 00:35:12;;;;;;;;;;;3.80;99.90;;;;;;4966118;28;19933;-75
2021/12/16 00:37:39;;;;;;;;;;;3.80;99.90;;;;;;4967423;28;19934;-75
2021/12/16 00:40:07;;;;;;;;;;;3.80;99.90;;;;;;4949571;28;19929;-75
2021/12/16 00:42:43;;;;;;;;;;;3.80;99.90;;;;;;4958580;28;19926;-75
2021/12/16 00:45:35;;;;;;;;;;;3.80;99.90;;;;;;4952492;28;19926;-75
2021/12/16 00:48:09;;;;;;;;;;;3.80;99.90;;;;;;4953015;28;19929;-75
2021/12/16 00:56:10;;;;;;;;;;;3.70;99.90;;;;;;4971642;28;20737;-76
2021/12/16 00:58:45;;;;;;;;;;;3.80;99.90;;;;;;4952486;28;19926;-75
2021/12/16 01:01:21;;;;;;;;;;;3.80;99.90;;;;;;4956753;28;20099;-76
2021/12/16 01:03:58;;;;;;;;;;;3.70;99.90;;;;;;4960105;28;19935;-76
2021/12/16 01:06:48;;;;;;;;;;;3.70;99.90;;;;;;4979216;28;19926;-74
2021/12/16 01:34:51;;;;;;;;;;;3.70;99.90;;;;;;4956968;28;19926;-75
2021/12/16 01:37:54;;;;;;;;;;;3.70;99.90;;;;;;4952188;28;19933;-75
2021/12/16 01:40:34;;;;;;;;;;;3.70;99.90;;;;;;4969528;28;19934;-76
2021/12/16 01:46:06;;;;;;;;;;;3.70;99.90;;;;;;4950967;28;19923;-75
2021/12/16 01:51:22;;;;;;;;;;;3.70;99.90;;;;;;4951442;28;20049;-76
2021/12/16 01:56:50;;;;;;;;;;;3.70;99.90;;;;;;4942182;28;20401;-75
2021/12/16 01:59:21;;;;;;;;;;;3.70;99.90;;;;;;4944444;28;20333;-75
2021/12/16 02:01:48;;;;;;;;;;;3.70;99.90;;;;;;4946646;28;19933;-75
2021/12/16 02:04:23;;;;;;;;;;;3.70;99.90;;;;;;4954985;28;19934;-75
2021/12/16 02:07:05;;;;;;;;;;;3.70;99.90;;;;;;4955790;28;19930;-75
2021/12/16 02:09:36;;;;;;;;;;;3.70;99.90;;;;;;4957864;28;19965;-76
2021/12/16 02:12:12;;;;;;;;;;;3.70;99.90;;;;;;4967576;28;20466;-75
2021/12/16 02:28:34;;;;;;;;;;;3.60;99.90;;;;;;4990462;28;19922;-75
2021/12/16 02:36:37;;;;;;;;;;;3.60;99.90;;;;;;4984458;28;20479;-74
2021/12/16 02:39:07;;;;;;;;;;;3.60;99.90;;;;;;4992078;28;19926;-74
2021/12/16 02:41:34;;;;;;;;;;;3.60;99.90;;;;;;4977565;28;19926;-75
2021/12/16 02:49:35;;;;;;;;;;;3.60;99.90;;;;;;4975091;28;19921;-75
2021/12/16 02:52:03;;;;;;;;;;;3.60;99.90;;;;;;4965973;28;19930;-75
2021/12/16 02:54:31;;;;;;;;;;;3.60;99.90;;;;;;4990311;28;20295;-75
2021/12/16 02:56:58;;;;;;;;;;;3.60;99.90;;;;;;4976524;28;20403;-75
2021/12/16 02:59:28;;;;;;;;;;;3.60;99.90;;;;;;4968478;28;20410;-75
2021/12/16 03:01:57;;;;;;;;;;;3.60;99.90;;;;;;4969213;28;20001;-77
2021/12/16 03:04:27;;;;;;;;;;;3.60;99.90;;;;;;4975009;28;20344;-75
2021/12/16 03:06:57;;;;;;;;;;;3.60;99.90;;;;;;4977677;28;20551;-76
2021/12/16 03:09:46;;;;;;;;;;;3.60;99.90;;;;;;4974920;28;19969;-75
2021/12/16 03:12:38;;;;;;;;;;;3.60;99.90;;;;;;4972855;28;19930;-76
2021/12/16 03:15:14;;;;;;;;;;;3.60;99.90;;;;;;4992764;28;19926;-74
2021/12/16 03:17:49;;;;;;;;;;;3.60;99.90;;;;;;4971565;28;20351;-75
2021/12/16 03:20:24;;;;;;;;;;;3.60;99.90;;;;;;5045049;23;20850;-76
2021/12/16 03:23:01;;;;;;;;;;;3.60;99.90;;;;;;5017178;23;19922;-76
2021/12/16 03:25:41;;;;;;;;;;;3.60;99.90;;;;;;5009774;22;20387;-76
2021/12/16 03:28:38;;;;;;;;;;;3.60;99.90;;;;;;4978002;28;19947;-76
2021/12/16 03:31:42;;;;;;;;;;;3.50;99.90;;;;;;4977933;28;20032;-76
2021/12/16 03:34:32;;;;;;;;;;;3.50;99.90;;;;;;4986543;28;20005;-76
2021/12/16 03:39:43;;;;;;;;;;;3.50;99.90;;;;;;4978128;28;20446;-78
2021/12/16 03:42:10;;;;;;;;;;;3.50;99.90;;;;;;4971507;28;20018;-78
2021/12/16 03:44:52;;;;;;;;;;;3.50;99.90;;;;;;4973889;28;19926;-78
2021/12/16 03:47:21;;;;;;;;;;;3.50;99.90;;;;;;4963049;28;19980;-78
2021/12/16 03:49:49;;;;;;;;;;;3.50;99.90;;;;;;4976374;28;19932;-78
2021/12/16 03:52:16;;;;;;;;;;;3.50;99.90;;;;;;4982255;28;20384;-76
2021/12/16 03:54:49;;;;;;;;;;;3.50;99.90;;;;;;4974297;28;19930;-78
2021/12/16 03:57:18;;;;;;;;;;;3.50;99.90;;;;;;4974028;28;19926;-78
2021/12/16 03:59:47;;;;;;;;;;;3.50;99.90;;;;;;4974360;28;19926;-78
2021/12/16 04:02:39;;;;;;;;;;;3.50;99.90;;;;;;4981823;28;20320;-78
2021/12/16 04:05:08;;;;;;;;;;;3.50;99.90;;;;;;4984987;28;19940;-76
2021/12/16 04:07:39;;;;;;;;;;;3.50;99.90;;;;;;4993597;28;19977;-76
2021/12/16 04:10:33;;;;;;;;;;;3.50;99.90;;;;;;4970055;28;19926;-78
2021/12/16 04:13:04;;;;;;;;;;;3.50;99.90;;;;;;4980206;28;19937;-78
2021/12/16 04:15:33;;;;;;;;;;;3.50;99.90;;;;;;4977819;28;19933;-78
2021/12/16 04:18:00;;;;;;;;;;;3.50;99.90;;;;;;4968534;28;19953;-78
2021/12/16 04:20:27;;;;;;;;;;;3.50;99.90;;;;;;4970885;28;20307;-78
2021/12/16 04:22:56;;;;;;;;;;;3.50;99.90;;;;;;4981155;28;20311;-78
2021/12/16 04:25:25;;;;;;;;;;;3.50;99.90;;;;;;4979831;28;19940;-78
2021/12/16 04:27:54;;;;;;;;;;;3.50;99.90;;;;;;4971880;28;20388;-78
2021/12/16 04:30:22;;;;;;;;;;;3.50;99.90;;;;;;4979349;28;19973;-78
2021/12/16 04:32:51;;;;;;;;;;;3.50;99.90;;;;;;4976781;28;19933;-78
2021/12/16 04:35:19;;;;;;;;;;;3.40;99.90;;;;;;4971361;28;19949;-78
2021/12/16 04:37:51;;;;;;;;;;;3.50;99.90;;;;;;4969842;28;19925;-78
2021/12/16 04:40:20;;;;;;;;;;;3.40;99.90;;;;;;4982213;28;19926;-78
2021/12/16 04:42:52;;;;;;;;;;;3.50;99.90;;;;;;4981667;28;19930;-78
2021/12/16 04:45:21;;;;;;;;;;;3.40;99.90;;;;;;4971605;28;19944;-78
2021/12/16 04:47:52;;;;;;;;;;;3.40;99.90;;;;;;4977438;28;19992;-78
2021/12/16 04:50:20;;;;;;;;;;;3.40;99.90;;;;;;4981802;28;20025;-78
2021/12/16 04:52:47;;;;;;;;;;;3.40;99.90;;;;;;4969207;28;19926;-78
2021/12/16 04:55:16;;;;;;;;;;;3.40;99.90;;;;;;4976430;28;19936;-78
2021/12/16 04:57:44;;;;;;;;;;;3.40;99.90;;;;;;4975348;28;20398;-78
2021/12/16 05:00:13;;;;;;;;;;;3.40;99.90;;;;;;4968594;28;20020;-79
2021/12/16 05:02:46;;;;;;;;;;;3.40;99.90;;;;;;4958362;28;20028;-78
2021/12/16 05:05:36;;;;;;;;;;;3.40;99.90;;;;;;4970531;28;20303;-78
2021/12/16 05:08:04;;;;;;;;;;;3.40;99.90;;;;;;4986977;28;19976;-78
2021/12/16 05:10:42;;;;;;;;;;;3.40;99.90;;;;;;4972163;28;19995;-79
2021/12/16 05:13:23;;;;;;;;;;;3.40;99.90;;;;;;4999061;28;20390;-78
2021/12/16 05:15:51;;;;;;;;;;;3.40;99.90;;;;;;4972361;28;19929;-79
2021/12/16 05:18:24;;;;;;;;;;;3.40;99.90;;;;;;4973767;28;19926;-78
2021/12/16 05:20:56;;;;;;;;;;;3.40;99.90;;;;;;4963069;28;19930;-78
2021/12/16 05:26:21;;;;;;;;;;;3.40;99.90;;;;;;4948018;28;19923;-78
2021/12/16 05:29:03;;;;;;;;;;;3.40;99.90;;;;;;4966479;28;19929;-78
2021/12/16 05:31:30;;;;;;;;;;;3.40;99.90;;;;;;4969570;28;20304;-77
2021/12/16 05:33:59;;;;;;;;;;;3.40;99.90;;;;;;4976181;28;19933;-78
2021/12/16 05:36:29;;;;;;;;;;;3.30;99.90;;;;;;4967535;28;20425;-78
2021/12/16 05:38:56;;;;;;;;;;;3.30;99.90;;;;;;4965049;28;19933;-78
2021/12/16 05:41:26;;;;;;;;;;;3.30;99.90;;;;;;4974564;28;19933;-79
2021/12/16 05:43:56;;;;;;;;;;;3.30;99.90;;;;;;4970601;28;19933;-79
2021/12/16 05:46:25;;;;;;;;;;;3.30;99.90;;;;;;4972924;28;20025;-80
2021/12/16 05:48:53;;;;;;;;;;;3.30;99.90;;;;;;4972275;28;19926;-79
2021/12/16 05:51:25;;;;;;;;;;;3.30;99.90;;;;;;4972720;28;20384;-80
2021/12/16 05:53:54;;;;;;;;;;;3.30;99.90;;;;;;4983622;28;19925;-79
2021/12/16 05:56:36;;;;;;;;;;;3.30;99.90;;;;;;4973242;28;20008;-78
2021/12/16 05:59:03;;;;;;;;;;;3.30;99.90;;;;;;4975069;28;20020;-80
2021/12/16 06:01:32;;;;;;;;;;;3.30;99.90;;;;;;4967278;28;19937;-80
2021/12/16 06:04:00;;;;;;;;;;;3.30;99.90;;;;;;4991010;28;19926;-80
2021/12/16 06:06:27;;;;;;;;;;;3.30;99.90;;;;;;4973536;28;19925;-79
2021/12/16 06:08:56;;;;;;;;;;;3.30;99.90;;;;;;4968694;28;19930;-80
2021/12/16 06:11:27;;;;;;;;;;;3.30;99.90;;;;;;4978910;28;20690;-79
2021/12/16 06:14:03;;;;;;;;;;;3.30;99.90;;;;;;4987691;28;19933;-79
2021/12/16 06:27:37;;;;;;;;;;;3.30;99.90;;;;;;4873113;28;20328;-81
2021/12/16 06:30:05;;;;;;;;;;;3.30;99.90;;;;;;4946488;28;19933;-84
2021/12/16 06:32:32;;;;;;;;;;;3.30;99.90;;;;;;4951608;28;19927;-80
2021/12/16 06:34:59;;;;;;;;;;;3.30;99.90;;;;;;4967376;28;19930;-80
2021/12/16 06:37:26;;;;;;;;;;;3.30;99.90;;;;;;4968729;28;19926;-79
2021/12/16 06:39:55;;;;;;;;;;;3.30;99.90;;;;;;4965142;28;19984;-80
2021/12/16 06:42:29;;;;;;;;;;;3.30;99.90;;;;;;4961190;28;19926;-80
2021/12/16 06:45:04;;;;;;;;;;;3.30;99.90;;;;;;4981358;28;19933;-80
2021/12/16 06:47:39;;;;;;;;;;;3.30;99.90;;;;;;4967214;28;19934;-80
2021/12/16 06:50:07;;;;;;;;;;;3.30;99.90;;;;;;4965759;28;19926;-80
2021/12/16 06:52:40;;;;;;;;;;;3.30;99.90;;;;;;4941649;28;19934;-80
2021/12/16 06:55:14;;;;;;;;;;;3.30;99.90;;;;;;4967755;28;19980;-80
2021/12/16 06:57:45;;;;;;;;;;;3.20;99.90;;;;;;4968942;28;19938;-80
2021/12/16 07:00:16;;;;;;;;;;;3.20;99.90;;;;;;4963122;28;19934;-80
2021/12/16 07:02:58;;;;;;;;;;;3.20;99.90;;;;;;4964211;28;20025;-80
2021/12/16 07:05:27;;;;;;;;;;;3.20;99.90;;;;;;4971227;28;20012;-80
2021/12/16 07:07:54;;;;;;;;;;;3.20;99.90;;;;;;4966926;28;19934;-81
2021/12/16 07:10:22;;;;;;;;;;;3.20;99.90;;;;;;4969998;28;19962;-80
2021/12/16 07:12:50;;;;;;;;;;;3.20;99.90;;;;;;4964128;28;20332;-80
2021/12/16 07:15:18;;;;;;;;;;;3.20;99.90;;;;;;4972309;28;19937;-80
2021/12/16 07:17:45;;;;;;;;;;;3.20;99.90;;;;;;4970198;28;19961;-80
2021/12/16 07:20:13;;;;;;;;;;;3.20;99.90;;;;;;4969036;28;19945;-80
2021/12/16 07:22:40;;;;;;;;;;;3.20;99.90;;;;;;4962781;28;20024;-80
2021/12/16 07:25:08;;;;;;;;;;;3.20;99.90;;;;;;4971444;28;20449;-81
2021/12/16 07:27:36;;;;;;;;;;;3.20;99.90;;;;;;4966433;28;19942;-80
2021/12/16 07:30:05;;;;;;;;;;;3.20;99.90;;;;;;4966355;28;20438;-80
2021/12/16 07:32:32;;;;;;;;;;;3.20;99.90;;;;;;4969682;28;19926;-80
2021/12/16 07:34:59;;;;;;;;;;;3.20;99.90;;;;;;4970191;28;19930;-81
2021/12/16 07:37:26;;;;;;;;;;;3.20;99.90;;;;;;4968225;28;20404;-80
2021/12/16 07:39:53;;;;;;;;;;;3.20;99.90;;;;;;4971103;28;20563;-80
2021/12/16 07:42:26;;;;;;;;;;;3.20;99.90;;;;;;4969270;28;19937;-80
2021/12/16 07:44:55;;;;;;;;;;;3.20;99.90;;;;;;4970632;28;20285;-81
2021/12/16 07:47:22;;;;;;;;;;;3.20;99.90;;;;;;4967174;28;19957;-80
2021/12/16 07:49:49;;;;;;;;;;;3.20;99.90;;;;;;4971541;28;19926;-80
2021/12/16 07:52:19;;;;;;;;;;;3.20;99.90;;;;;;4972195;28;19926;-80
2021/12/16 07:54:46;;;;;;;;;;;3.20;99.90;;;;;;4970629;28;20021;-83
2021/12/16 07:57:13;;;;;;;;;;;3.20;99.90;;;;;;4967403;28;20025;-80
2021/12/16 07:59:40;;;;;;;;;;;3.20;99.90;;;;;;4968447;28;19926;-80
2021/12/16 08:02:11;;;;;;;;;;;3.20;99.90;;;;;;4968240;28;19926;-80
2021/12/16 08:04:42;;;;;;;;;;;3.20;99.90;;;;;;4966303;28;20315;-81
2021/12/16 08:07:10;;;;;;;;;;;3.20;99.90;;;;;;4969127;28;19926;-80
2021/12/16 08:09:40;;;;;;;;;;;3.20;99.90;;;;;;4970654;28;19926;-80
2021/12/16 08:12:08;;;;;;;;;;;3.20;99.90;;;;;;4969517;28;19926;-80
2021/12/16 08:14:35;;;;;;;;;;;3.20;99.90;;;;;;4968243;28;20332;-80
2021/12/16 08:17:03;;;;;;;;;;;3.20;99.90;;;;;;4970758;28;19926;-81
2021/12/16 08:19:31;;;;;;;;;;;3.20;99.90;;;;;;4969689;28;20404;-80
2021/12/16 08:21:58;;;;;;;;;;;3.20;99.90;;;;;;4968421;28;19981;-80
2021/12/16 08:24:25;;;;;;;;;;;3.20;99.90;;;;;;4980353;28;19977;-80
2021/12/16 08:26:53;;;;;;;;;;;3.20;99.90;;;;;;4971014;28;20380;-80
2021/12/16 08:29:20;;;;;;;;;;;3.20;99.90;;;;;;4965731;28;19926;-80
2021/12/16 08:31:48;;;;;;;;;;;3.20;99.90;;;;;;4983783;28;19926;-80
2021/12/16 08:34:16;;;;;;;;;;;3.20;99.90;;;;;;4967517;28;19965;-81
2021/12/16 08:36:45;;;;;;;;;;;3.20;99.90;;;;;;4965929;28;19932;-81
2021/12/16 08:39:12;;;;;;;;;;;3.20;99.90;;;;;;4967008;28;20354;-80
2021/12/16 08:41:40;;;;;;;;;;;3.20;99.90;;;;;;4968852;28;19926;-80
2021/12/16 08:44:07;;;;;;;;;;;3.20;99.90;;;;;;4969860;28;19937;-81
2021/12/16 08:46:36;;;;;;;;;;;3.20;99.90;;;;;;4964069;28;19949;-80
2021/12/16 08:49:04;;;;;;;;;;;3.20;99.90;;;;;;4985120;28;20016;-80
2021/12/16 08:51:34;;;;;;;;;;;3.20;99.90;;;;;;4977921;28;19934;-80
2021/12/16 08:54:02;;;;;;;;;;;3.20;99.90;;;;;;4968678;28;19996;-80
2021/12/16 08:56:30;;;;;;;;;;;3.20;99.90;;;;;;4970477;28;19985;-81
2021/12/16 08:58:58;;;;;;;;;;;3.20;99.90;;;;;;4962026;28;19926;-80
2021/12/16 09:01:26;;;;;;;;;;;3.20;99.90;;;;;;4968759;28;20545;-81
2021/12/16 09:03:54;;;;;;;;;;;3.20;99.90;;;;;;4966804;28;19969;-81
2021/12/16 09:06:21;;;;;;;;;;;3.20;99.90;;;;;;4963215;28;19932;-81
2021/12/16 09:08:48;;;;;;;;;;;3.20;99.90;;;;;;4969299;28;19941;-81
2021/12/16 09:11:20;;;;;;;;;;;3.20;99.90;;;;;;4967697;28;19930;-80
2021/12/16 09:13:48;;;;;;;;;;;3.20;99.90;;;;;;4967629;28;19926;-80
2021/12/16 09:16:17;;;;;;;;;;;3.20;99.90;;;;;;4963816;28;20020;-80
2021/12/16 09:18:44;;;;;;;;;;;3.20;99.90;;;;;;4968074;28;19933;-80
2021/12/16 09:21:12;;;;;;;;;;;3.20;99.90;;;;;;4969459;28;20372;-80
2021/12/16 09:23:40;;;;;;;;;;;3.20;99.90;;;;;;4960466;28;20309;-80
2021/12/16 09:26:07;;;;;;;;;;;3.20;99.90;;;;;;4971144;28;19933;-80
2021/12/16 09:28:35;;;;;;;;;;;3.20;99.90;;;;;;4968626;28;20400;-80
2021/12/16 09:31:04;;;;;;;;;;;3.20;99.90;;;;;;4961849;28;20025;-80
2021/12/16 09:33:31;;;;;;;;;;;3.20;99.90;;;;;;4966161;28;19961;-80
2021/12/16 09:36:00;;;;;;;;;;;3.20;99.90;;;;;;4967317;28;19976;-80
2021/12/16 09:38:28;;;;;;;;;;;3.20;99.90;;;;;;4968621;28;20025;-80
2021/12/16 09:40:56;;;;;;;;;;;3.20;99.90;;;;;;4967315;28;19926;-80
2021/12/16 09:43:24;;;;;;;;;;;3.20;99.90;;;;;;4966628;28;19937;-80
2021/12/16 09:45:54;;;;;;;;;;;3.20;99.90;;;;;;4968149;28;20351;-80
2021/12/16 09:48:21;;;;;;;;;;;3.30;99.90;;;;;;4965059;28;19926;-81
2021/12/16 09:50:48;;;;;;;;;;;3.20;99.90;;;;;;4967842;28;19926;-80
2021/12/16 09:53:15;;;;;;;;;;;3.20;99.90;;;;;;4967061;28;20032;-80
2021/12/16 09:55:44;;;;;;;;;;;3.20;99.90;;;;;;4965278;28;19926;-80
2021/12/16 09:58:11;;;;;;;;;;;3.20;99.90;;;;;;4965390;28;19938;-80
2021/12/16 10:00:38;;;;;;;;;;;3.20;99.90;;;;;;4968621;28;19930;-80
2021/12/16 10:03:06;;;;;;;;;;;3.20;99.90;;;;;;4963808;28;19934;-80
2021/12/16 10:05:34;;;;;;;;;;;3.30;99.90;;;;;;4961635;28;19957;-80
2021/12/16 10:08:04;;;;;;;;;;;3.30;99.90;;;;;;4964236;28;19930;-80
2021/12/16 10:10:31;;;;;;;;;;;3.20;99.90;;;;;;4966267;28;20430;-80
2021/12/16 10:13:02;;;;;;;;;;;3.30;99.90;;;;;;4966900;28;19930;-80
2021/12/16 10:18:20;;;;;;;;;;;3.30;99.90;;;;;;4962044;28;20389;-80
2021/12/16 10:20:49;;;;;;;;;;;3.30;99.90;;;;;;4975355;28;20023;-81
2021/12/16 10:23:18;;;;;;;;;;;3.30;99.90;;;;;;4959958;28;20392;-80
2021/12/16 10:25:46;;;;;;;;;;;3.30;99.90;;;;;;4968059;28;19930;-80
2021/12/16 10:28:14;;;;;;;;;;;3.30;99.90;;;;;;4972751;28;19973;-80
2021/12/16 10:30:44;;;;;;;;;;;3.30;99.90;;;;;;4962965;28;20366;-80
2021/12/16 10:33:13;;;;;;;;;;;3.30;99.90;;;;;;4959487;28;19930;-80
2021/12/16 10:35:47;;;;;;;;;;;3.30;99.90;;;;;;4968405;28;19934;-80
2021/12/16 10:38:15;;;;;;;;;;;3.30;99.90;;;;;;4962088;28;19961;-80
2021/12/16 10:40:44;;;;;;;;;;;3.30;99.90;;;;;;4970221;28;19952;-80
2021/12/16 10:43:14;;;;;;;;;;;3.30;99.90;;;;;;4963169;28;20406;-80
2021/12/16 10:45:42;;;;;;;;;;;3.30;99.90;;;;;;4972010;28;19937;-80
2021/12/16 10:48:11;;;;;;;;;;;3.30;99.90;;;;;;4959321;28;20395;-80
2021/12/16 10:50:55;;;;;;;;;;;3.30;99.90;;;;;;4971804;28;20312;-80
2021/12/16 10:53:40;;;;;;;;;;;3.30;99.90;;;;;;4959577;28;19953;-80
2021/12/16 10:56:07;;;;;;;;;;;3.30;99.90;;;;;;4980708;28;20414;-80
2021/12/16 10:58:51;;;;;;;;;;;3.30;99.90;;;;;;4967727;28;19937;-80
2021/12/16 11:01:40;;;;;;;;;;;3.30;99.90;;;;;;4967453;28;19977;-80
2021/12/16 11:04:09;;;;;;;;;;;3.30;99.90;;;;;;4963165;28;19926;-80
2021/12/16 11:06:40;;;;;;;;;;;3.30;99.90;;;;;;4963932;28;19933;-80
2021/12/16 11:09:27;;;;;;;;;;;3.30;99.90;;;;;;4968363;28;19926;-79
2021/12/16 11:12:05;;;;;;;;;;;3.30;99.90;;;;;;4965312;28;19989;-80
2021/12/16 11:14:35;;;;;;;;;;;3.30;99.90;;;;;;4971804;28;20191;-80
2021/12/16 11:17:07;;;;;;;;;;;3.30;99.90;;;;;;4971563;28;20376;-80
2021/12/16 11:19:44;;;;;;;;;;;3.30;99.90;;;;;;4969045;28;20020;-80
2021/12/16 11:22:15;;;;;;;;;;;3.40;99.90;;;;;;4965965;28;20384;-80
2021/12/16 11:24:42;;;;;;;;;;;3.40;99.90;;;;;;4969024;28;19926;-80
2021/12/16 11:27:30;;;;;;;;;;;3.30;99.90;;;;;;4969198;28;19926;-80
2021/12/16 11:29:58;;;;;;;;;;;3.40;99.90;;;;;;4981736;28;20384;-80
2021/12/16 11:32:35;;;;;;;;;;;3.40;99.90;;;;;;4968603;28;19933;-80
2021/12/16 11:35:19;;;;;;;;;;;3.40;99.90;;;;;;4960777;28;20023;-80
2021/12/16 11:37:49;;;;;;;;;;;3.40;99.90;;;;;;4969363;28;19961;-80
2021/12/16 11:40:16;;;;;;;;;;;3.40;99.90;;;;;;4970536;28;20013;-80
2021/12/16 11:42:57;;;;;;;;;;;3.40;99.90;;;;;;4967716;28;19926;-80
2021/12/16 11:45:31;;;;;;;;;;;3.40;99.90;;;;;;4970164;28;19926;-80
2021/12/16 11:48:01;;;;;;;;;;;3.40;99.90;;;;;;4968405;28;20008;-80
2021/12/16 11:50:32;;;;;;;;;;;3.40;99.90;;;;;;4969444;28;20388;-80
2021/12/16 11:53:01;;;;;;;;;;;3.40;99.90;;;;;;4964631;28;19931;-80
2021/12/16 11:55:28;;;;;;;;;;;3.40;99.90;;;;;;4964097;28;20301;-80
2021/12/16 11:58:01;;;;;;;;;;;3.40;99.90;;;;;;4970803;28;20009;-80
2021/12/16 12:00:29;;;;;;;;;;;3.40;99.90;;;;;;4966138;28;19937;-80
2021/12/16 12:02:57;;;;;;;;;;;3.50;99.90;;;;;;4979866;28;19942;-80
2021/12/16 12:05:26;;;;;;;;;;;3.40;99.90;;;;;;4970577;28;20004;-80
2021/12/16 12:07:54;;;;;;;;;;;3.50;99.90;;;;;;4968774;28;20025;-80
2021/12/16 12:10:35;;;;;;;;;;;3.50;99.90;;;;;;4964332;28;19989;-80
2021/12/16 12:13:06;;;;;;;;;;;3.50;99.90;;;;;;4977908;28;19932;-79
2021/12/16 12:15:33;;;;;;;;;;;3.50;99.90;;;;;;4967108;28;19933;-80
2021/12/16 12:18:00;;;;;;;;;;;3.50;99.90;;;;;;4966741;28;19927;-80
2021/12/16 12:20:32;;;;;;;;;;;3.50;99.90;;;;;;4975551;28;19933;-80
2021/12/16 12:23:03;;;;;;;;;;;3.50;99.90;;;;;;4964265;28;19926;-80
2021/12/16 12:25:30;;;;;;;;;;;3.50;99.90;;;;;;4968157;28;19926;-80
2021/12/16 12:27:59;;;;;;;;;;;3.50;99.90;;;;;;4969026;28;19973;-81
2021/12/16 12:30:26;;;;;;;;;;;3.60;99.90;;;;;;4970098;28;19930;-80
2021/12/16 12:32:56;;;;;;;;;;;3.60;99.90;;;;;;4977180;28;19934;-80
2021/12/16 12:35:30;;;;;;;;;;;3.50;99.90;;;;;;4980286;28;19946;-81
2021/12/16 12:38:01;;;;;;;;;;;3.60;99.90;;;;;;4967892;28;19934;-80
2021/12/16 12:40:30;;;;;;;;;;;3.60;99.90;;;;;;4970433;28;19933;-80
2021/12/16 12:42:58;;;;;;;;;;;3.60;99.90;;;;;;4969363;28;19934;-80
2021/12/16 12:45:27;;;;;;;;;;;3.60;99.90;;;;;;4977234;28;19932;-80
2021/12/16 12:47:55;;;;;;;;;;;3.60;99.90;;;;;;4968298;28;19926;-80
2021/12/16 12:50:24;;;;;;;;;;;3.60;99.90;;;;;;4968084;28;19930;-80
2021/12/16 12:52:53;;;;;;;;;;;3.60;99.90;;;;;;4962223;28;19930;-80
2021/12/16 12:55:23;;;;;;;;;;;3.60;99.90;;;;;;4963437;28;19930;-80
2021/12/16 12:57:51;;;;;;;;;;;3.60;99.90;;;;;;4968876;28;19948;-80
2021/12/16 13:00:27;;;;;;;;;;;3.60;99.90;;;;;;4969123;28;19934;-80
2021/12/16 13:02:57;;;;;;;;;;;3.60;99.90;;;;;;4961377;28;20377;-80
2021/12/16 13:05:24;;;;;;;;;;;3.60;99.90;;;;;;4959580;28;19962;-80
2021/12/16 13:07:58;;;;;;;;;;;3.70;99.90;;;;;;4978353;28;19934;-80
2021/12/16 13:10:29;;;;;;;;;;;3.70;99.90;;;;;;4960449;28;19934;-80
2021/12/16 13:13:26;;;;;;;;;;;3.70;99.90;;;;;;4964102;28;19933;-80
2021/12/16 13:16:15;;;;;;;;;;;3.70;99.90;;;;;;4967267;28;21110;-81
2021/12/16 13:27:24;;;;;;;;;;;3.70;99.90;;;;;;4960261;28;19997;-80
2021/12/16 13:30:07;;;;;;;;;;;3.70;99.90;;;;;;4969989;28;19968;-80
2021/12/16 13:32:43;;;;;;;;;;;3.70;99.90;;;;;;4967758;28;20299;-80
2021/12/16 13:35:22;;;;;;;;;;;3.70;99.90;;;;;;4966700;28;19926;-80
2021/12/16 13:37:50;;;;;;;;;;;3.70;99.90;;;;;;4959703;28;19934;-80
2021/12/16 13:40:19;;;;;;;;;;;3.80;99.90;;;;;;4968543;28;19933;-80
2021/12/16 13:42:51;;;;;;;;;;;3.80;99.90;;;;;;4959535;28;19926;-80
2021/12/16 13:45:23;;;;;;;;;;;3.70;99.90;;;;;;4965521;28;19926;-80
2021/12/16 13:48:05;;;;;;;;;;;3.80;99.90;;;;;;4963194;28;20010;-81
2021/12/16 14:02:00;;;;;;;;;;;3.80;99.90;;;;;;4941456;28;20304;-81
2021/12/16 14:04:57;;;;;;;;;;;3.80;99.90;;;;;;5054563;23;20314;-79
2021/12/16 14:07:50;;;;;;;;;;;3.80;99.90;;;;;;5000855;22;19925;-81
2021/12/16 14:10:20;;;;;;;;;;;3.80;99.90;;;;;;4957823;28;19932;-80
2021/12/16 14:22:56;;;;;;;;;;;3.80;99.90;;;;;;4969129;28;20431;-81
2021/12/16 14:24:13;;;;;;;;;;;3.90;99.90;;;;;;4945286;28;19935;-80
2021/12/16 14:26:51;;;;;;;;;;;3.90;99.90;;;;;;4960764;28;19994;-80
2021/12/16 14:35:04;;;;;;;;;;;3.90;99.90;;;;;;4942403;28;20487;-80
2021/12/16 14:37:46;;;;;;;;;;;3.90;99.90;;;;;;4939541;28;19926;-80
2021/12/16 14:40:35;;;;;;;;;;;3.90;99.90;;;;;;4949556;28;19926;-80
2021/12/16 14:43:16;;;;;;;;;;;3.90;99.90;;;;;;4951745;28;19946;-80
2021/12/16 14:45:46;;;;;;;;;;;3.90;99.90;;;;;;4956911;28;19966;-80
2021/12/16 14:48:27;;;;;;;;;;;3.90;99.90;;;;;;4951989;28;19927;-80
2021/12/16 14:50:57;;;;;;;;;;;3.90;99.90;;;;;;4935293;29;19927;-80
2021/12/16 14:53:28;;;;;;;;;;;3.90;99.90;;;;;;4937060;28;20304;-80
2021/12/16 14:55:57;;;;;;;;;;;3.90;99.90;;;;;;4950711;28;19948;-80
2021/12/16 14:58:25;;;;;;;;;;;3.90;99.90;;;;;;4957839;28;19934;-80
2021/12/16 15:00:53;;;;;;;;;;;3.90;99.90;;;;;;4944032;28;19962;-80
2021/12/16 15:03:23;;;;;;;;;;;3.90;99.90;;;;;;4944930;28;19926;-80
2021/12/16 15:05:52;;;;;;;;;;;3.90;99.90;;;;;;4962344;28;19934;-80
2021/12/16 15:08:25;;;;;;;;;;;4.00;99.90;;;;;;4950481;28;20013;-80
2021/12/16 15:10:54;;;;;;;;;;;4.00;99.90;;;;;;4945550;28;19933;-80
2021/12/16 15:13:27;;;;;;;;;;;4.00;99.90;;;;;;4945178;28;19974;-80
2021/12/16 15:16:14;;;;;;;;;;;3.90;99.90;;;;;;4944713;28;20025;-80
2021/12/16 15:43:49;;;;;;;;;;;4.00;99.90;;;;;;4962311;28;20451;-80
2021/12/16 15:46:16;;;;;;;;;;;4.00;99.90;;;;;;4949075;28;19935;-80
2021/12/16 15:48:46;;;;;;;;;;;4.00;99.90;;;;;;4944934;28;20364;-80
2021/12/16 15:51:13;;;;;;;;;;;4.00;99.90;;;;;;4948259;28;19934;-80
2021/12/16 15:53:41;;;;;;;;;;;4.00;99.90;;;;;;4952313;28;20319;-80
2021/12/16 15:56:09;;;;;;;;;;;4.00;99.90;;;;;;4944179;28;20393;-80
2021/12/16 15:58:37;;;;;;;;;;;4.00;99.90;;;;;;4944934;28;19966;-80
2021/12/16 16:01:07;;;;;;;;;;;4.00;99.90;;;;;;4936465;28;19938;-80
2021/12/16 16:03:34;;;;;;;;;;;4.00;99.90;;;;;;4940867;28;19957;-81
2021/12/16 16:06:03;;;;;;;;;;;4.10;99.90;;;;;;4940952;28;20380;-81
2021/12/16 16:08:33;;;;;;;;;;;4.10;99.90;;;;;;4959934;28;19974;-81
2021/12/16 16:11:03;;;;;;;;;;;4.10;99.90;;;;;;4945496;28;19937;-81
2021/12/16 16:13:31;;;;;;;;;;;4.10;99.90;;;;;;4932271;28;19934;-81
2021/12/16 16:16:02;;;;;;;;;;;4.10;99.90;;;;;;4946098;28;19940;-80
2021/12/16 16:18:36;;;;;;;;;;;4.10;99.90;;;;;;4941491;28;20112;-81
2021/12/16 16:21:06;;;;;;;;;;;4.10;99.90;;;;;;4945456;28;19949;-81
2021/12/16 16:23:34;;;;;;;;;;;4.10;99.90;;;;;;4946244;28;20025;-81
2021/12/16 16:26:04;;;;;;;;;;;4.10;99.90;;;;;;4926151;28;19937;-81
2021/12/16 16:28:31;;;;;;;;;;;4.10;99.90;;;;;;4946666;28;19934;-81
2021/12/16 16:30:59;;;;;;;;;;;4.10;99.90;;;;;;4946024;28;19926;-81
2021/12/16 16:33:26;;;;;;;;;;;4.10;99.90;;;;;;4930342;28;19956;-80
2021/12/16 16:35:58;;;;;;;;;;;4.10;99.90;;;;;;4941371;28;19938;-80
2021/12/16 16:38:26;;;;;;;;;;;4.10;99.90;;;;;;4938325;28;20349;-81
2021/12/16 16:40:57;;;;;;;;;;;4.10;99.90;;;;;;4960809;28;19931;-80
2021/12/16 16:43:26;;;;;;;;;;;4.10;99.90;;;;;;4942678;28;20073;-80
2021/12/16 16:45:54;;;;;;;;;;;4.10;99.90;;;;;;4933054;29;19927;-80
2021/12/16 16:48:41;;;;;;;;;;;4.10;99.90;;;;;;4944099;28;19927;-81
2021/12/16 16:51:11;;;;;;;;;;;4.10;99.90;;;;;;4936725;28;19930;-81
2021/12/16 16:53:46;;;;;;;;;;;4.10;99.90;;;;;;4939831;28;20386;-80
2021/12/16 16:56:16;;;;;;;;;;;4.10;99.90;;;;;;4943462;28;19933;-80
2021/12/16 16:58:43;;;;;;;;;;;4.10;99.90;;;;;;4960965;28;20331;-80
2021/12/16 17:01:11;;;;;;;;;;;4.10;99.90;;;;;;4938818;28;19933;-80
2021/12/16 17:03:39;;;;;;;;;;;4.10;99.90;;;;;;4951378;28;19937;-80
2021/12/16 17:06:07;;;;;;;;;;;4.10;99.90;;;;;;4930344;28;20017;-81
2021/12/16 17:08:36;;;;;;;;;;;4.10;99.90;;;;;;4941285;28;20477;-80
2021/12/16 17:11:06;;;;;;;;;;;4.10;99.90;;;;;;4941136;28;20013;-80
2021/12/16 17:13:42;;;;;;;;;;;4.10;99.90;;;;;;4934743;28;20369;-80
2021/12/16 17:18:57;;;;;;;;;;;4.10;99.90;;;;;;4948581;28;19929;-80
2021/12/16 17:21:26;;;;;;;;;;;4.10;99.90;;;;;;4953773;28;19962;-80
2021/12/16 17:23:57;;;;;;;;;;;4.10;99.90;;;;;;4959032;28;20018;-80
2021/12/16 17:26:27;;;;;;;;;;;4.10;99.90;;;;;;4930234;28;19926;-80
2021/12/16 17:28:55;;;;;;;;;;;4.10;99.90;;;;;;4951362;28;19982;-81
2021/12/16 17:31:36;;;;;;;;;;;4.00;99.90;;;;;;4940221;28;19934;-80
2021/12/16 17:34:09;;;;;;;;;;;4.10;99.90;;;;;;4939515;28;20266;-80
2021/12/16 17:36:44;;;;;;;;;;;4.00;99.90;;;;;;4965295;28;20163;-80
2021/12/16 17:39:14;;;;;;;;;;;4.10;99.90;;;;;;4939775;28;19927;-80
2021/12/16 17:41:41;;;;;;;;;;;4.00;99.90;;;;;;4947443;28;19977;-81